createdAt,value
2022-08-02T04:02:04.462Z,99.90
2022-08-02T04:04:36.162Z,99.90
2022-08-02T04:07:07.935Z,99.90
2022-08-02T04:09:39.656Z,99.90
2022-08-02T04:12:11.600Z,99.90
2022-08-02T04:14:43.488Z,99.90
2022-08-02T04:17:16.517Z,99.90
2022-08-02T04:19:50.072Z,99.90
2022-08-02T04:22:23.677Z,99.90
2022-08-02T04:24:57.224Z,99.90
2022-08-02T04:28:15.178Z,99.90
2022-08-02T04:30:20.592Z,99.90
2022-08-02T04:32:53.682Z,99.90
2022-08-02T04:35:25.396Z,99.90
2022-08-02T04:38:08.971Z,99.90
2022-08-02T04:40:52.477Z,99.90
2022-08-02T04:43:24.227Z,99.90
2022-08-02T04:45:55.948Z,99.90
2022-08-02T04:48:29.018Z,99.90
2022-08-02T04:51:00.734Z,99.90
2022-08-02T04:53:32.486Z,99.90
2022-08-02T04:56:04.640Z,99.90
2022-08-02T04:58:40.405Z,99.90
2022-08-02T05:01:12.738Z,99.90
2022-08-02T05:03:46.838Z,99.90
2022-08-02T05:06:19.886Z,99.90
2022-08-02T05:08:52.772Z,99.90
2022-08-02T05:16:40.666Z,99.90
2022-08-02T05:24:17.780Z,99.90
2022-08-02T05:26:49.461Z,77.50
2022-08-02T05:29:21.154Z,99.90
2022-08-02T05:31:52.816Z,99.90
2022-08-02T05:34:25.888Z,1.00
2022-08-02T05:36:57.578Z,1.00
2022-08-02T05:39:31.881Z,99.90
2022-08-02T05:42:04.106Z,99.90
2022-08-02T05:44:35.820Z,99.90
2022-08-02T05:47:07.492Z,99.90
2022-08-02T05:49:40.587Z,99.90
2022-08-02T05:52:15.281Z,99.90
2022-08-02T05:54:49.616Z,99.90
2022-08-02T05:57:26.901Z,99.90
2022-08-02T06:00:03.449Z,99.90
2022-08-02T06:02:43.810Z,99.90
2022-08-02T06:05:18.892Z,99.90
2022-08-02T06:07:50.601Z,99.90
2022-08-02T06:10:23.203Z,99.90
2022-08-02T06:13:01.244Z,99.90
2022-08-02T06:15:32.932Z,99.90
2022-08-02T06:18:05.116Z,99.90
2022-08-02T06:20:38.190Z,99.90
2022-08-02T06:23:13.651Z,99.90
2022-08-02T06:25:50.752Z,99.90
2022-08-02T06:28:23.345Z,91.30
2022-08-02T06:30:55.065Z,33.20
2022-08-02T06:33:26.788Z,8.60
2022-08-02T06:36:04.706Z,1.00
2022-08-02T06:38:40.085Z,1.00
2022-08-02T06:41:14.025Z,1.00
2022-08-02T06:43:53.740Z,1.00
2022-08-02T06:46:37.823Z,1.00
2022-08-02T06:49:17.140Z,1.00
2022-08-02T06:51:50.213Z,1.00
2022-08-02T06:54:21.922Z,1.00
2022-08-02T06:56:53.583Z,1.00
2022-08-02T06:59:25.294Z,7.50
2022-08-02T07:01:59.087Z,99.90
2022-08-02T07:04:30.837Z,99.90
2022-08-02T07:07:03.887Z,99.90
2022-08-02T07:09:35.577Z,1.00
2022-08-02T07:12:07.425Z,1.00
2022-08-02T07:17:11.246Z,1.00
2022-08-02T07:19:42.932Z,1.00
2022-08-02T07:22:16.314Z,1.00
2022-08-02T07:24:48.240Z,1.00
2022-08-02T07:27:20.043Z,1.00
2022-08-02T07:29:51.879Z,1.00
2022-08-02T07:32:24.743Z,1.00
2022-08-02T07:34:56.591Z,1.00
2022-08-02T07:37:53.194Z,1.00
2022-08-02T07:43:02.368Z,1.00
2022-08-02T07:45:35.711Z,1.00
2022-08-02T07:48:07.848Z,1.00
2022-08-02T07:50:39.594Z,1.00
2022-08-02T07:55:44.722Z,1.00
2022-08-02T07:58:16.439Z,1.00
2022-08-02T08:00:48.137Z,1.00
2022-08-02T08:05:51.902Z,1.00
2022-08-02T08:08:24.931Z,1.00
2022-08-02T08:13:28.663Z,1.00
2022-08-02T08:16:00.393Z,1.00
2022-08-02T08:18:32.071Z,1.00
2022-08-02T08:21:04.346Z,1.00
2022-08-02T08:23:37.426Z,1.00
2022-08-02T08:26:11.706Z,1.00
2022-08-02T08:28:47.039Z,1.00
2022-08-02T08:31:18.746Z,1.00
2022-08-02T08:33:50.426Z,1.00
2022-08-02T08:36:22.399Z,1.00
2022-08-02T08:38:55.413Z,1.00
2022-08-02T08:41:27.152Z,1.00
2022-08-02T08:44:01.864Z,1.00
2022-08-02T08:46:33.821Z,1.00
2022-08-02T08:49:16.046Z,1.00
2022-08-02T08:51:47.792Z,1.00
2022-08-02T08:54:22.117Z,1.00
2022-08-02T08:56:53.824Z,1.00
2022-08-02T08:59:25.492Z,1.00
2022-08-02T09:01:57.307Z,1.00
2022-08-02T09:04:29.417Z,1.00
2022-08-02T09:07:01.101Z,1.00
2022-08-02T09:09:34.163Z,1.00
2022-08-02T09:12:15.429Z,1.00
2022-08-02T09:14:50.020Z,1.00
2022-08-02T09:20:06.688Z,99.90
2022-08-02T09:22:38.676Z,1.00
2022-08-02T09:25:14.973Z,1.00
2022-08-02T09:27:48.180Z,1.00
2022-08-02T09:30:20.037Z,1.00
2022-08-02T09:32:51.715Z,1.00
2022-08-02T09:36:06.918Z,1.00
2022-08-02T09:38:26.151Z,1.00
2022-08-02T09:40:59.667Z,1.00
2022-08-02T09:43:38.214Z,1.00
2022-08-02T09:46:30.399Z,1.00
2022-08-02T09:49:04.415Z,1.00
2022-08-02T09:51:37.631Z,1.00
2022-08-02T09:54:10.080Z,1.00
2022-08-02T09:56:46.931Z,1.00
2022-08-02T09:59:19.323Z,1.00
2022-08-02T10:02:17.127Z,1.00
2022-08-02T10:04:53.376Z,1.00
2022-08-02T10:07:25.824Z,1.00
2022-08-02T10:09:57.573Z,1.00
2022-08-02T10:12:30.594Z,1.00
2022-08-02T10:15:02.352Z,1.00
2022-08-02T10:17:34.052Z,1.00
2022-08-02T10:20:06.535Z,1.00
2022-08-02T10:22:38.287Z,1.00
2022-08-02T10:25:10.292Z,1.00
2022-08-02T10:28:04.173Z,1.00
2022-08-02T10:30:35.405Z,1.00
2022-08-02T10:33:07.745Z,1.00
2022-08-02T10:35:39.684Z,1.00
2022-08-02T10:38:11.599Z,1.00
2022-08-02T10:40:44.676Z,1.00
2022-08-02T10:43:42.193Z,1.00
2022-08-02T10:46:25.944Z,1.00
2022-08-02T10:49:36.690Z,1.00
2022-08-02T10:52:08.009Z,1.00
2022-08-02T10:54:40.833Z,1.00
2022-08-02T10:57:20.473Z,1.00
2022-08-02T10:59:55.773Z,1.00
2022-08-02T11:02:38.995Z,1.00
2022-08-02T11:05:14.375Z,1.00
2022-08-02T11:10:28.974Z,1.00
2022-08-02T11:13:02.881Z,1.00
2022-08-02T11:15:56.257Z,1.00
2022-08-02T11:19:01.602Z,1.00
2022-08-02T11:21:33.848Z,1.00
2022-08-02T11:24:27.806Z,1.00
2022-08-02T11:26:59.848Z,1.00
2022-08-02T11:29:38.208Z,1.00
2022-08-02T11:32:17.764Z,1.00
2022-08-02T11:34:50.666Z,1.00
2022-08-02T11:37:28.821Z,1.00
2022-08-02T11:40:00.505Z,1.00
2022-08-02T11:42:32.389Z,1.00
2022-08-02T11:45:04.660Z,1.00
2022-08-02T11:47:46.291Z,1.00
2022-08-02T11:50:18.188Z,1.00
2022-08-02T11:52:49.865Z,1.00
2022-08-02T11:55:26.865Z,1.00
2022-08-02T11:58:03.636Z,1.00
2022-08-02T12:00:37.138Z,1.00
2022-08-02T12:03:10.213Z,1.00
2022-08-02T12:06:05.684Z,1.00
2022-08-02T12:08:33.721Z,1.00
2022-08-02T12:11:05.869Z,1.00
2022-08-02T12:13:43.673Z,1.00
2022-08-02T12:16:15.363Z,1.00
2022-08-02T12:18:49.816Z,1.00
2022-08-02T12:21:22.191Z,1.00
2022-08-02T12:24:00.536Z,1.00
2022-08-02T12:26:41.538Z,1.00
2022-08-02T12:29:13.588Z,1.00
2022-08-02T12:31:56.960Z,1.00
2022-08-02T12:34:32.464Z,1.00
2022-08-02T12:37:05.393Z,1.00
2022-08-02T12:39:41.188Z,1.00
2022-08-02T12:42:14.240Z,1.00
2022-08-02T12:44:50.577Z,1.00
2022-08-02T12:47:22.264Z,1.00
2022-08-02T12:50:14.758Z,1.00
2022-08-02T12:52:47.072Z,1.00
2022-08-02T12:55:19.843Z,1.00
2022-08-02T12:57:52.895Z,1.00
2022-08-02T13:00:26.026Z,1.00
2022-08-02T13:02:58.303Z,1.00
2022-08-02T13:05:56.550Z,1.00
2022-08-02T13:08:23.300Z,1.00
2022-08-02T13:10:54.981Z,1.00
2022-08-02T13:13:26.682Z,1.00
2022-08-02T13:15:58.878Z,1.00
2022-08-02T13:18:30.594Z,1.00
2022-08-02T13:21:03.841Z,1.00
2022-08-02T13:23:54.571Z,1.00
2022-08-02T13:26:31.225Z,1.00
2022-08-02T13:29:03.136Z,1.00
2022-08-02T13:31:36.863Z,1.00
2022-08-02T13:34:08.980Z,1.00
2022-08-02T13:36:42.032Z,1.00
2022-08-02T13:39:13.714Z,1.00
2022-08-02T13:41:45.406Z,1.00
2022-08-02T13:44:17.078Z,1.00
2022-08-02T13:46:48.765Z,1.00
2022-08-02T13:49:21.806Z,1.00
2022-08-02T13:52:13.840Z,1.00
2022-08-02T13:54:45.780Z,1.00
2022-08-02T13:57:17.515Z,1.00
2022-08-02T13:59:57.316Z,1.00
2022-08-02T14:02:30.649Z,1.00
2022-08-02T14:05:02.318Z,1.00
2022-08-02T14:07:35.354Z,1.00
2022-08-02T14:10:08.092Z,1.00
2022-08-02T14:12:39.786Z,1.00
2022-08-02T14:15:11.475Z,1.00
2022-08-02T14:17:43.171Z,1.00
2022-08-02T14:20:20.104Z,1.00
2022-08-02T14:22:55.045Z,1.00
2022-08-02T14:25:26.741Z,1.00
2022-08-02T14:27:58.444Z,1.00
2022-08-02T14:30:30.406Z,1.00
2022-08-02T14:33:03.261Z,1.00
2022-08-02T14:35:34.974Z,1.00
2022-08-02T14:38:08.043Z,1.00
2022-08-02T14:40:39.739Z,1.00
2022-08-02T14:43:11.445Z,1.00
2022-08-02T14:45:43.566Z,1.00
2022-08-02T14:48:15.248Z,1.00
2022-08-02T14:50:47.040Z,1.00
2022-08-02T14:53:20.106Z,1.00
2022-08-02T14:55:51.790Z,1.00
2022-08-02T14:58:23.489Z,1.00
2022-08-02T15:00:55.191Z,1.00
2022-08-02T15:03:29.579Z,1.00
2022-08-02T15:06:01.556Z,1.00
2022-08-02T15:08:34.628Z,1.00
2022-08-02T15:11:06.305Z,1.00
2022-08-02T15:13:42.309Z,1.00
2022-08-02T15:16:14.558Z,1.00
2022-08-02T15:18:46.265Z,1.00
2022-08-02T15:21:40.176Z,1.00
2022-08-02T15:24:11.376Z,1.00
2022-08-02T15:26:43.074Z,1.00
2022-08-02T15:29:14.762Z,1.00
2022-08-02T15:31:46.452Z,1.00
2022-08-02T15:34:18.693Z,1.00
2022-08-02T15:36:50.678Z,1.00
2022-08-02T15:39:24.137Z,1.00
2022-08-02T15:41:55.815Z,1.00
2022-08-02T15:44:27.502Z,1.00
2022-08-02T15:46:59.219Z,1.00
2022-08-02T15:49:30.971Z,1.00
2022-08-02T15:52:02.874Z,1.00
2022-08-02T15:54:35.906Z,1.00
2022-08-02T15:57:07.592Z,1.00
2022-08-02T15:59:39.278Z,1.00
2022-08-02T16:02:11.492Z,1.00
2022-08-02T16:04:43.436Z,1.00
2022-08-02T16:07:15.113Z,1.00
2022-08-02T16:09:48.124Z,1.00
2022-08-02T16:12:19.809Z,1.00
2022-08-02T16:15:04.824Z,1.00
2022-08-02T16:17:48.812Z,1.00
2022-08-02T16:20:26.338Z,1.00
2022-08-02T16:22:58.033Z,1.00
2022-08-02T16:25:31.155Z,1.00
2022-08-02T16:28:07.818Z,1.00
2022-08-02T16:30:39.854Z,1.00
2022-08-02T16:33:11.580Z,1.00
2022-08-02T16:35:47.670Z,1.00
2022-08-02T16:38:19.590Z,1.00
2022-08-02T16:40:52.634Z,1.00
2022-08-02T16:43:24.320Z,1.00
2022-08-02T16:45:59.255Z,1.00
2022-08-02T16:48:30.964Z,1.00
2022-08-02T16:51:03.058Z,1.00
2022-08-02T16:53:38.969Z,1.00
2022-08-02T16:56:29.384Z,1.00
2022-08-02T16:59:01.094Z,1.00
2022-08-02T17:02:03.204Z,1.00
2022-08-02T17:04:25.824Z,1.00
2022-08-02T17:06:57.878Z,1.00
2022-08-02T17:10:03.829Z,1.00
2022-08-02T17:12:22.714Z,1.00
2022-08-02T17:14:55.593Z,1.00
2022-08-02T17:17:34.129Z,1.00
2022-08-02T17:20:07.206Z,1.00
2022-08-02T17:22:38.959Z,1.00
2022-08-02T17:25:15.917Z,1.00
2022-08-02T17:27:55.665Z,1.00
2022-08-02T17:30:27.749Z,1.00
2022-08-02T17:32:59.604Z,1.00
2022-08-02T17:35:43.571Z,1.00
2022-08-02T17:38:26.275Z,1.00
2022-08-02T17:40:59.508Z,1.00
2022-08-02T17:43:32.673Z,1.00
2022-08-02T17:46:04.373Z,1.00
2022-08-02T17:48:39.435Z,1.00
2022-08-02T17:51:11.120Z,1.00
2022-08-02T17:53:43.940Z,1.00
2022-08-02T17:56:21.497Z,1.00
2022-08-02T17:58:56.021Z,1.00
2022-08-02T18:01:27.741Z,1.00
2022-08-02T18:04:03.998Z,1.00
2022-08-02T18:06:36.280Z,1.00
2022-08-02T18:09:08.924Z,1.00
2022-08-02T18:11:53.110Z,1.00
2022-08-02T18:14:26.658Z,99.90
2022-08-02T18:16:58.461Z,1.00
2022-08-02T18:19:33.238Z,1.00
2022-08-02T18:22:14.969Z,1.00
2022-08-02T18:24:47.054Z,1.00
2022-08-02T18:27:21.808Z,1.00
2022-08-02T18:30:04.006Z,1.00
2022-08-02T18:33:55.738Z,1.00
2022-08-02T18:35:29.460Z,1.00
2022-08-02T18:38:03.642Z,1.00
2022-08-02T18:40:35.671Z,1.00
2022-08-02T18:43:07.845Z,1.00
2022-08-02T18:46:04.837Z,1.00
2022-08-02T18:48:32.830Z,1.00
2022-08-02T18:51:06.587Z,1.00
2022-08-02T18:53:41.507Z,3.20
2022-08-02T18:56:20.171Z,8.90
2022-08-02T18:58:56.612Z,18.80
2022-08-02T19:01:33.799Z,24.40
2022-08-02T19:04:08.581Z,31.50
2022-08-02T19:06:40.475Z,46.50
2022-08-02T19:09:13.529Z,39.90
2022-08-02T19:11:47.339Z,51.40
2022-08-02T19:14:27.830Z,99.90
2022-08-02T19:17:16.052Z,82.60
2022-08-02T19:19:52.988Z,71.80
2022-08-02T19:22:28.282Z,92.10
2022-08-02T19:25:01.823Z,96.20
2022-08-02T19:27:33.641Z,99.90
2022-08-02T19:30:07.628Z,99.90
2022-08-02T19:32:59.479Z,99.90
2022-08-02T19:35:34.625Z,99.90
2022-08-02T19:38:07.241Z,99.90
2022-08-02T19:40:39.962Z,99.90
2022-08-02T19:44:25.305Z,99.90
2022-08-02T19:46:03.410Z,99.90
2022-08-02T19:48:36.501Z,99.90
2022-08-02T19:51:08.351Z,99.90
2022-08-02T19:53:47.910Z,99.90
2022-08-02T19:56:25.249Z,99.90
2022-08-02T19:58:57.676Z,99.90
2022-08-02T20:01:38.762Z,99.90
2022-08-02T20:04:14.089Z,99.90
2022-08-02T20:06:47.636Z,99.90
2022-08-02T20:09:21.480Z,99.90
2022-08-02T20:11:55.219Z,99.90
2022-08-02T20:14:28.002Z,1.00
2022-08-02T20:16:59.825Z,99.90
2022-08-02T20:19:33.341Z,99.90
2022-08-02T20:22:07.119Z,99.90
2022-08-02T20:24:38.934Z,99.90
2022-08-02T20:27:16.319Z,99.90
2022-08-02T20:29:49.898Z,99.90
2022-08-02T20:32:22.814Z,99.90
2022-08-02T20:37:59.269Z,99.90
2022-08-02T20:40:20.720Z,99.90
2022-08-02T20:42:52.490Z,99.90
2022-08-02T20:45:27.119Z,99.90
2022-08-02T20:47:58.967Z,99.90
2022-08-02T20:50:33.531Z,1.00
2022-08-02T20:53:06.518Z,1.00
2022-08-02T20:55:41.255Z,1.00
2022-08-02T20:58:13.074Z,1.00
2022-08-02T21:00:44.821Z,1.00
2022-08-02T21:03:16.652Z,1.00
2022-08-02T21:05:54.640Z,1.00
2022-08-02T21:08:27.411Z,1.00
2022-08-02T21:13:31.173Z,1.00
2022-08-02T21:18:54.850Z,1.00
2022-08-02T21:21:27.891Z,1.00
2022-08-02T21:23:59.938Z,1.00
2022-08-02T21:26:32.770Z,1.00
2022-08-02T21:29:04.591Z,1.00
2022-08-02T21:31:37.455Z,1.00
2022-08-02T21:34:21.686Z,1.00
2022-08-02T21:36:55.935Z,1.00
2022-08-02T21:39:27.662Z,1.00
2022-08-02T21:41:59.442Z,1.00
2022-08-02T21:44:31.148Z,99.90
2022-08-02T21:47:02.837Z,69.30
2022-08-02T21:50:08.939Z,99.90
2022-08-02T21:52:27.730Z,99.90
2022-08-02T21:54:59.443Z,99.90
2022-08-02T21:57:34.062Z,99.90
2022-08-02T22:59:02.308Z,1.00
